Hlavní strana
METAR-TAF:

METAR-TAF

Letiště :

Kansas City, Missouri, Spojené státy americké

zeměpisná šířka: 39-17-50N, zeměpisná délka: 094-43-50W, výška: 312 m

Aktuální stav počasí

Zpráva byla vytvořena před 23 minutami, v 21:53 UTC
Jižní vítr 8 kt
Teplota 13°C
Vlhkost vzduchu 44%
Tlak 1016 hPa
Viditelnost: 16.1 km
Jasno

METAR: KMCI 162153Z 18008KT 10SM CLR 13/01 A3001 RMK AO2 SLP164 T01280011

Čas: 16:16 (22:16 UTC)

Předpověď počasí

Zpráva byla vytvořena před 4 hodinami a 50 minutami, v 17:26 UTC
Předpověď platná od 16 v 18 UTC do 17 v 18 UTC
Jižní vítr 7 kt
Viditelnost: 10 km
Jasno
Od 17 v 1200 UTC
Severní vítr 9 kt
Viditelnost: 10 km
Oblačno až skoro zataženo ve výšce 4000 ft
Od 17 v 1500 UTC
Severoseverovýchodní vítr 15 kt
Viditelnost: 10 km
Zataženo ve výšce 1500 ft

TAF: KMCI 161726Z 1618/1718 17007KT P6SM SKC FM171200 36009KT P6SM BKN040 FM171500 03015KT P6SM OVC015

Stav a předpovědi počasí z více než 4 000 letišť (zprávy METAR a TAF).

Červené a žluté tečky na mapě představují dostupné meteorologické stanice.

Když kurzor umístíte na tečku, zobrazí se název stanice.

Pak kliknutím zobrazíte stav a předpověď počasí.

Chcete-li změnit mapu, kliknutím na zelené tlačítko se znaménkem +mapu přiblížíte, kliknutím na zelené tlačítko se znaménkem – mapu oddálíte a kliknutím na zelené šipky přejdete na sousední mapy.


METAR-TAF: